地図

経路データ

SID SEASON NUMBER BASIN SUBBASIN NAME ISO_TIME NATURE LAT LON WMO_WIND WMO_PRES WMO_AGENCY TRACK_TYPE DIST2LAND LANDFALL IFLAG USA_AGENCY USA_ATCF_ID USA_LAT USA_LON USA_RECORD USA_STATUS USA_WIND USA_PRES USA_SSHS USA_R34_NE USA_R34_SE USA_R34_SW USA_R34_NW USA_R50_NE USA_R50_SE USA_R50_SW USA_R50_NW USA_R64_NE USA_R64_SE USA_R64_SW USA_R64_NW USA_POCI USA_ROCI USA_RMW USA_EYE TOKYO_LAT TOKYO_LON TOKYO_GRADE TOKYO_WIND TOKYO_PRES TOKYO_R50_DIR TOKYO_R50_LONG TOKYO_R50_SHORT TOKYO_R30_DIR TOKYO_R30_LONG TOKYO_R30_SHORT TOKYO_LAND CMA_LAT CMA_LON CMA_CAT CMA_WIND CMA_PRES HKO_LAT HKO_LON HKO_CAT HKO_WIND HKO_PRES NEWDELHI_LAT NEWDELHI_LON NEWDELHI_GRADE NEWDELHI_WIND NEWDELHI_PRES NEWDELHI_CI NEWDELHI_DP NEWDELHI_POCI REUNION_LAT REUNION_LON REUNION_TYPE REUNION_WIND REUNION_PRES REUNION_TNUM REUNION_CI REUNION_RMW REUNION_R34_NE REUNION_R34_SE REUNION_R34_SW REUNION_R34_NW REUNION_R50_NE REUNION_R50_SE REUNION_R50_SW REUNION_R50_NW REUNION_R64_NE REUNION_R64_SE REUNION_R64_SW REUNION_R64_NW BOM_LAT BOM_LON BOM_TYPE BOM_WIND BOM_PRES BOM_TNUM BOM_CI BOM_RMW BOM_R34_NE BOM_R34_SE BOM_R34_SW BOM_R34_NW BOM_R50_NE BOM_R50_SE BOM_R50_SW BOM_R50_NW BOM_R64_NE BOM_R64_SE BOM_R64_SW BOM_R64_NW BOM_ROCI BOM_POCI BOM_EYE BOM_POS_METHOD BOM_PRES_METHOD NADI_LAT NADI_LON NADI_CAT NADI_WIND NADI_PRES WELLINGTON_LAT WELLINGTON_LON WELLINGTON_WIND WELLINGTON_PRES DS824_LAT DS824_LON DS824_STAGE DS824_WIND DS824_PRES TD9636_LAT TD9636_LON TD9636_STAGE TD9636_WIND TD9636_PRES TD9635_LAT TD9635_LON TD9635_WIND TD9635_PRES TD9635_ROCI NEUMANN_LAT NEUMANN_LON NEUMANN_CLASS NEUMANN_WIND NEUMANN_PRES MLC_LAT MLC_LON MLC_CLASS MLC_WIND MLC_PRES USA_GUST BOM_GUST BOM_GUST_PER REUNION_GUST REUNION_GUST_PER USA_SEAHGT USA_SEARAD_NE USA_SEARAD_SE USA_SEARAD_SW USA_SEARAD_NW STORM_SPEED STORM_DIR
2022194N11269 2022 37 EP MM ESTELLE 2022-07-12 18:00:00 NR 10.5000 -91.0000 PROVISIONAL 360 360 O_____________ nhc_working_bt EP062022 10.5000 -91.0000 DB 20 1010 -3 3 270
2022194N11269 2022 37 EP MM ESTELLE 2022-07-12 21:00:00 NR 10.4999 -91.1275 PROVISIONAL 364 364 P_____________ EP062022 10.4999 -91.1275 DB 20 1010 -3 4 270
2022194N11269 2022 37 EP MM ESTELLE 2022-07-13 00:00:00 NR 10.5000 -91.4000 PROVISIONAL 378 378 O_____________ nhc_working_bt EP062022 10.5000 -91.4000 DB 20 1010 -3 8 270
2022194N11269 2022 37 EP MM ESTELLE 2022-07-13 03:00:00 NR 10.5002 -91.9050 PROVISIONAL 386 386 P_____________ EP062022 10.5002 -91.9050 DB 20 1010 -3 11 270
2022194N11269 2022 37 EP MM ESTELLE 2022-07-13 06:00:00 NR 10.5000 -92.5000 PROVISIONAL 402 402 O_____________ nhc_working_bt EP062022 10.5000 -92.5000 DB 20 1010 -3 11 270
2022194N11269 2022 37 EP MM ESTELLE 2022-07-13 09:00:00 NR 10.4999 -93.0075 PROVISIONAL 423 423 P_____________ EP062022 10.4999 -93.0075 DB 20 1010 -3 10 270
2022194N11269 2022 37 EP MM ESTELLE 2022-07-13 12:00:00 NR 10.5000 -93.5000 PROVISIONAL 449 449 O_____________ nhc_working_bt EP062022 10.5000 -93.5000 DB 20 1010 -3 10 270
2022194N11269 2022 37 EP MM ESTELLE 2022-07-13 15:00:00 NR 10.4999 -94.0000 PROVISIONAL 478 478 P_____________ EP062022 10.4999 -94.0000 DB 20 1010 -3 10 270
2022194N11269 2022 37 EP MM ESTELLE 2022-07-13 18:00:00 NR 10.5000 -94.5000 PROVISIONAL 507 507 O_____________ nhc_working_bt EP062022 10.5000 -94.5000 DB 20 1010 -3 1012 150 90 10 270
2022194N11269 2022 37 EP MM ESTELLE 2022-07-13 21:00:00 NR 10.4999 -94.9925 PROVISIONAL 540 540 P_____________ EP062022 10.4999 -94.9925 DB 22 1010 -3 1012 150 90 10 270
2022194N11269 2022 37 EP MM ESTELLE 2022-07-14 00:00:00 NR 10.5000 -95.5000 PROVISIONAL 573 573 O_____________ nhc_working_bt EP062022 10.5000 -95.5000 DB 25 1010 -3 1012 150 90 10 270
2022194N11269 2022 37 EP MM ESTELLE 2022-07-14 03:00:00 NR 10.4924 -96.0276 PROVISIONAL 574 571 P_____________ EP062022 10.4924 -96.0276 DB 25 1010 -3 1012 150 85 11 270
2022194N11269 2022 37 EP MM ESTELLE 2022-07-14 06:00:00 NR 10.5000 -96.6000 PROVISIONAL 571 571 O_____________ nhc_working_bt EP062022 10.5000 -96.6000 DB 25 1010 -3 1012 150 80 12 272
2022194N11269 2022 37 EP MM ESTELLE 2022-07-14 09:00:00 NR 10.5352 -97.2875 PROVISIONAL 576 568 P_____________ EP062022 10.5352 -97.2875 DB 25 1010 -3 1012 150 80 13 274
2022194N11269 2022 37 EP MM ESTELLE 2022-07-14 12:00:00 NR 10.6000 -97.9000 PROVISIONAL 577 572 O_____________ nhc_working_bt EP062022 10.6000 -97.9000 DB 25 1010 -3 1012 150 80 10 279
2022194N11269 2022 37 EP MM ESTELLE 2022-07-14 15:00:00 NR 10.6923 -98.2525 PROVISIONAL 578 571 P_____________ EP062022 10.6923 -98.2525 DB 25 1009 -3 1012 150 80 6 289
2022194N11269 2022 37 EP MM ESTELLE 2022-07-14 18:00:00 NR 10.8000 -98.5000 PROVISIONAL 575 573 O_____________ nhc_working_bt EP062022 10.8000 -98.5000 DB 25 1009 -3 1012 150 80 40 6 290
2022194N11269 2022 37 EP MM ESTELLE 2022-07-14 21:00:00 NR 10.8850 -98.8001 PROVISIONAL 577 574 P_____________ EP062022 10.8850 -98.8001 DB 25 1009 -3 1011 155 80 6 289
2022194N11269 2022 37 EP MM ESTELLE 2022-07-15 00:00:00 NR 11.0000 -99.1000 PROVISIONAL 577 564 O_____________ nhc_working_bt EP062022 11.0000 -99.1000 DB 25 1009 -3 1011 160 80 40 7 296
2022194N11269 2022 37 EP MM ESTELLE 2022-07-15 03:00:00 NR 11.1775 -99.4075 PROVISIONAL 564 554 P_____________ EP062022 11.1775 -99.4075 DB 25 1009 -3 1011 160 80 7 304
2022194N11269 2022 37 EP MM ESTELLE 2022-07-15 06:00:00 NR 11.4000 -99.7000 PROVISIONAL 554 542 O_____________ nhc_working_bt EP062022 11.4000 -99.7000 DB 25 1009 -3 1011 160 80 7 310
2022194N11269 2022 37 EP MM ESTELLE 2022-07-15 09:00:00 NR 11.6350 -99.9576 PROVISIONAL 546 525 P_____________ EP062022 11.6350 -99.9576 DB 27 1008 -3 1011 155 70 8 308
2022194N11269 2022 37 EP MM ESTELLE 2022-07-15 12:00:00 TS 11.8667 -100.300 PROVISIONAL 525 498 O_____________ nhc_working_bt EP062022 11.9000 -100.200 TD 30 1007 -1 1011 150 60 40 7 319
2022194N11269 2022 37 EP MM ESTELLE 2022-07-15 15:00:00 TS 12.1836 -100.441 PROVISIONAL 498 476 P_____________ EP062022 12.1999 -100.420 TD 30 1007 -1 1011 155 50 7 332
2022194N11269 2022 37 EP MM ESTELLE 2022-07-15 18:00:00 TS 12.5000 -100.640 PROVISIONAL 476 458 O_____________ nhc_working_bt EP062022 12.5000 -100.700 TD 30 1007 -1 1011 160 40 40 8 314
2022194N11269 2022 37 EP MM ESTELLE 2022-07-15 21:00:00 TS 12.7701 -101.057 PROVISIONAL 461 454 P_____________ EP062022 12.7651 -101.120 TD 32 1006 -1 1011 185 40 11 298
2022194N11269 2022 37 EP MM ESTELLE 2022-07-16 00:00:00 TS 13.0000 -101.600 PROVISIONAL 461 461 O_____________ nhc_working_bt EP062022 13.0000 -101.600 TS 35 1006 0 40 1011 210 40 45 11 293
2022194N11269 2022 37 EP MM ESTELLE 2022-07-16 03:00:00 TS 13.2076 -102.139 PROVISIONAL 468 461 P_____________ EP062022 13.2075 -102.058 TS 40 1004 0 40 1011 210 30 11 292
2022194N11269 2022 37 EP MM ESTELLE 2022-07-16 06:00:00 TS 13.4000 -102.633 PROVISIONAL 465 456 O_____________ nhc_working_bt EP062022 13.4000 -102.500 TS 45 1003 0 40 50 1011 210 20 55 9 296
2022194N11269 2022 37 EP MM ESTELLE 2022-07-16 09:00:00 TS 13.6123 -102.999 PROVISIONAL 461 451 P_____________ EP062022 13.6075 -102.923 TS 50 1000 0 45 50 10 10 1011 210 20 8 302
2022194N11269 2022 37 EP MM ESTELLE 2022-07-16 12:00:00 TS 13.8000 -103.300 PROVISIONAL 457 453 O_____________ nhc_working_bt EP062022 13.8000 -103.300 TS 55 997 0 50 50 20 40 20 20 1011 210 20 65 12 60 7 297
2022194N11269 2022 37 EP MM ESTELLE 2022-07-16 15:00:00 TS 13.9166 -103.603 PROVISIONAL 465 461 P_____________ EP062022 13.9499 -103.608 TS 57 995 0 50 50 20 40 20 20 1010 195 20 12 60 6 292
2022194N11269 2022 37 EP MM ESTELLE 2022-07-16 18:00:00 TS 14.0333 -103.900 PROVISIONAL 468 454 O_____________ nhc_working_bt EP062022 14.1000 -103.900 TS 60 993 0 50 50 20 40 20 20 20 1010 180 20 75 12 60 7 297
2022194N11269 2022 37 EP MM ESTELLE 2022-07-16 21:00:00 TS 14.2157 -104.197 PROVISIONAL 458 443 P_____________ EP062022 14.2924 -104.235 TS 62 992 0 55 50 25 40 20 20 20 1009 175 15 12 67 7 303
2022194N11269 2022 37 EP MM ESTELLE 2022-07-17 00:00:00 TS 14.4333 -104.533 PROVISIONAL 447 433 O_____________ nhc_working_bt EP062022 14.5000 -104.600 HU 65 991 1 60 50 30 40 20 20 11 20 11 1009 170 10 80 12 75 45 45 75 8 302
2022194N11269 2022 37 EP MM ESTELLE 2022-07-17 03:00:00 TS 14.6540 -104.927 PROVISIONAL 429 426 P_____________ EP062022 14.6923 -104.970 HU 67 989 1 60 50 30 40 20 20 11 20 11 1009 170 10 12 82 45 45 82 10 299
2022194N11269 2022 37 EP MM ESTELLE 2022-07-17 06:00:00 TS 14.9000 -105.400 PROVISIONAL 431 426 O_____________ nhc_working_bt EP062022 14.9000 -105.400 HU 70 988 1 60 50 30 40 20 20 11 20 11 11 1009 170 10 85 12 90 45 45 90 12 297
2022194N11269 2022 37 EP MM ESTELLE 2022-07-17 09:00:00 TS 15.1860 -105.986 PROVISIONAL 437 435 P_____________ EP062022 15.1426 -105.942 HU 72 986 1 60 50 30 40 20 20 11 20 11 11 1008 175 10 12 105 52 52 60 13 297
2022194N11269 2022 37 EP MM ESTELLE 2022-07-17 12:00:00 TS 15.4667 -106.567 PROVISIONAL 454 454 O_____________ nhc_working_bt EP062022 15.4000 -106.500 HU 75 984 1 60 50 30 40 20 20 11 20 11 11 1008 180 10 90 12 120 60 60 30 11 296
2022194N11269 2022 37 EP MM ESTELLE 2022-07-17 15:00:00 TS 15.6781 -107.014 PROVISIONAL 455 454 P_____________ EP062022 15.6348 -106.965 HU 75 984 1 60 50 30 40 20 20 11 20 11 11 1009 180 10 12 120 60 60 60 9 298
2022194N11269 2022 37 EP MM ESTELLE 2022-07-17 18:00:00 TS 15.9000 -107.400 PROVISIONAL 460 455 O_____________ nhc_working_bt EP062022 15.9000 -107.400 HU 75 984 1 60 50 30 40 20 20 11 20 11 11 1010 180 10 90 12 120 60 60 90 9 305
2022194N11269 2022 37 EP MM ESTELLE 2022-07-17 21:00:00 TS 16.1914 -107.766 PROVISIONAL 462 454 P_____________ EP062022 16.2349 -107.843 HU 72 985 1 60 50 30 40 20 20 11 20 11 11 1010 180 10 12 135 67 60 97 10 311
2022194N11269 2022 37 EP MM ESTELLE 2022-07-18 00:00:00 TS 16.5333 -108.167 PROVISIONAL 468 461 O_____________ nhc_working_bt EP062022 16.6000 -108.300 HU 70 986 1 60 50 30 40 20 20 11 20 11 11 1010 180 10 85 12 150 75 60 105 11 311
2022194N11269 2022 37 EP MM ESTELLE 2022-07-18 03:00:00 TS 16.9265 -108.660 PROVISIONAL 476 469 P_____________ EP062022 16.9647 -108.770 HU 70 986 1 75 70 40 55 30 30 15 25 15 15 1010 180 10 12 165 82 67 112 13 307
2022194N11269 2022 37 EP MM ESTELLE 2022-07-18 06:00:00 TS 17.3000 -109.233 PROVISIONAL 491 491 O_____________ nhc_working_bt EP062022 17.3000 -109.300 HU 70 986 1 90 90 50 70 40 40 20 30 20 20 1010 180 10 85 12 180 90 75 120 13 300
2022194N11269 2022 37 EP MM ESTELLE 2022-07-18 09:00:00 TS 17.5849 -109.861 PROVISIONAL 535 535 P_____________ EP062022 17.5800 -109.928 HU 70 986 1 90 90 50 75 40 40 20 30 20 20 1009 165 10 12 180 90 75 120 13 292
2022194N11269 2022 37 EP MM ESTELLE 2022-07-18 12:00:00 TS 17.8000 -110.533 PROVISIONAL 572 559 O_____________ nhc_working_bt EP062022 17.8000 -110.600 HU 70 986 1 90 90 50 80 40 40 20 30 20 20 1008 150 10 85 12 180 90 75 120 14 287
2022194N11269 2022 37 EP MM ESTELLE 2022-07-18 15:00:00 TS 17.9800 -111.232 PROVISIONAL 562 562 P_____________ EP062022 17.9799 -111.265 HU 70 986 1 90 90 50 80 40 40 20 30 20 20 1009 150 10 12 180 105 82 135 13 283
2022194N11269 2022 37 EP MM ESTELLE 2022-07-18 18:00:00 TS 18.1000 -111.900 PROVISIONAL 572 572 O_____________ nhc_working_bt EP062022 18.1000 -111.900 HU 70 986 1 90 90 50 80 40 40 20 30 20 20 1010 150 10 85 12 180 120 90 150 12 279
2022194N11269 2022 37 EP MM ESTELLE 2022-07-18 21:00:00 TS 18.1571 -112.463 PROVISIONAL 586 586 P_____________ EP062022 18.1571 -112.458 HU 67 987 1 95 90 60 85 45 40 20 35 20 1010 165 15 12 180 120 90 150 11 275
2022194N11269 2022 37 EP MM ESTELLE 2022-07-19 00:00:00 TS 18.2000 -113.000 PROVISIONAL 611 611 O_____________ nhc_working_bt EP062022 18.2000 -113.000 HU 65 988 1 100 90 70 90 50 40 20 40 20 1010 180 20 80 12 180 120 90 150 11 276
2022194N11269 2022 37 EP MM ESTELLE 2022-07-19 03:00:00 TS 18.2776 -113.613 PROVISIONAL 636 636 P_____________ EP062022 18.2775 -113.608 HU 60 990 0 100 95 55 85 50 1010 180 25 12 180 120 90 135 12 280
2022194N11269 2022 37 EP MM ESTELLE 2022-07-19 06:00:00 TS 18.4000 -114.200 PROVISIONAL 666 666 O_____________ nhc_working_bt EP062022 18.4000 -114.200 TS 55 993 0 100 100 40 80 50 1010 180 30 65 12 180 120 90 120 10 287
2022194N11269 2022 37 EP MM ESTELLE 2022-07-19 09:00:00 TS 18.5771 -114.669 PROVISIONAL 685 685 P_____________ EP062022 18.5772 -114.708 TS 55 993 0 100 100 40 80 50 1010 180 30 12 195 127 90 127 10 294
2022194N11269 2022 37 EP MM ESTELLE 2022-07-19 12:00:00 TS 18.8000 -115.133 PROVISIONAL 700 700 O_____________ nhc_working_bt EP062022 18.8000 -115.200 TS 55 993 0 100 100 40 80 50 1010 180 30 65 12 210 135 90 135 11 295
2022194N11269 2022 37 EP MM ESTELLE 2022-07-19 15:00:00 TS 19.0300 -115.704 PROVISIONAL 734 731 P_____________ EP062022 19.0349 -115.743 TS 55 993 0 100 100 40 80 50 1010 165 30 12 210 127 90 127 12 294
2022194N11269 2022 37 EP MM ESTELLE 2022-07-19 18:00:00 TS 19.3000 -116.300 PROVISIONAL 742 739 O_____________ nhc_working_bt EP062022 19.3000 -116.300 TS 55 993 0 100 100 40 80 50 1010 150 30 65 12 210 120 90 120 12 300
2022194N11269 2022 37 EP MM ESTELLE 2022-07-19 21:00:00 TS 19.6379 -116.833 PROVISIONAL 747 744 P_____________ EP062022 19.5996 -116.828 TS 55 993 0 100 90 40 80 45 1010 150 30 12 195 120 90 135 12 303
2022194N11269 2022 37 EP MM ESTELLE 2022-07-20 00:00:00 TS 19.9667 -117.400 PROVISIONAL 756 756 O_____________ nhc_working_bt EP062022 19.9000 -117.400 TS 55 993 0 100 80 40 80 40 40 1010 150 30 65 12 180 120 90 150 13 295
2022194N11269 2022 37 EP MM ESTELLE 2022-07-20 03:00:00 TS 20.1959 -118.083 PROVISIONAL 794 794 P_____________ EP062022 20.1575 -118.078 TS 52 995 0 95 70 35 80 35 35 1010 150 30 12 180 97 90 150 14 288
2022194N11269 2022 37 EP MM ESTELLE 2022-07-20 06:00:00 TS 20.4000 -118.800 PROVISIONAL 836 836 O_____________ nhc_working_bt EP062022 20.4000 -118.800 TS 50 997 0 90 60 30 80 30 30 1010 150 30 60 12 180 75 90 150 14 289
2022194N11269 2022 37 EP MM ESTELLE 2022-07-20 09:00:00 TS 20.6471 -119.462 PROVISIONAL 883 877 P_____________ EP062022 20.6572 -119.500 TS 50 997 0 90 60 30 80 30 30 1010 150 30 12 165 82 90 135 13 292
2022194N11269 2022 37 EP MM ESTELLE 2022-07-20 12:00:00 TS 20.9000 -120.133 PROVISIONAL 910 910 O_____________ nhc_working_bt EP062022 20.9000 -120.200 TS 50 997 0 90 60 30 80 30 30 1010 150 30 60 12 150 90 90 120 14 291
2022194N11269 2022 37 EP MM ESTELLE 2022-07-20 15:00:00 TS 21.1460 -120.884 PROVISIONAL 947 939 P_____________ EP062022 21.1075 -120.923 TS 47 999 0 80 75 1011 135 30 12 135 90 90 120 14 289
2022194N11269 2022 37 EP MM ESTELLE 2022-07-20 18:00:00 TS 21.3667 -121.600 PROVISIONAL 969 969 O_____________ nhc_working_bt EP062022 21.3000 -121.600 TS 45 1002 0 70 70 1012 120 30 55 12 120 90 90 120 13 288
2022194N11269 2022 37 EP MM ESTELLE 2022-07-20 21:00:00 TS 21.5378 -122.178 PROVISIONAL 1004 996 P_____________ EP062022 21.4996 -122.173 TS 42 1003 0 65 60 1012 115 30 12 120 82 82 105 11 288
2022194N11269 2022 37 EP MM ESTELLE 2022-07-21 00:00:00 TS 21.7000 -122.700 PROVISIONAL 1026 1026 O_____________ nhc_working_bt EP062022 21.7000 -122.700 TS 40 1004 0 60 50 1012 110 30 50 12 120 75 75 90 11 290
2022194N11269 2022 37 EP MM ESTELLE 2022-07-21 03:00:00 TS 21.8947 -123.243 PROVISIONAL 1050 1050 P_____________ EP062022 21.9147 -123.243 TS 37 1005 0 50 45 1012 110 30 12 120 75 75 90 11 291
2022194N11269 2022 37 EP MM ESTELLE 2022-07-21 06:00:00 TS 22.1000 -123.800 PROVISIONAL 1084 1084 O_____________ nhc_working_bt EP062022 22.1000 -123.800 TS 35 1007 0 40 40 1012 110 30 45 12 120 75 75 90 12 293
2022194N11269 2022 37 EP MM ESTELLE 2022-07-21 09:00:00 TS 22.3450 -124.407 PROVISIONAL 1121 1115 P_____________ EP062022 22.2300 -124.408 TS 32 1007 -1 1011 105 30 12 290
2022194N11269 2022 37 EP MM ESTELLE 2022-07-21 12:00:00 TS 22.5000 -125.000 PROVISIONAL 1161 1161 O_____________ nhc_working_bt EP062022 22.3000 -125.000 TD 30 1007 -1 1010 100 30 40 10 276
2022194N11269 2022 37 EP MM ESTELLE 2022-07-21 15:00:00 TS 22.4601 -125.523 PROVISIONAL 1204 1204 P_____________ EP062022 22.3151 -125.523 TD 30 1007 -1 1011 110 30 9 258
2022194N11269 2022 37 EP MM ESTELLE 2022-07-21 18:00:00 DS 22.3000 -126.000 PROVISIONAL 1260 O_____________ nhc_working_bt EP062022 22.3000 -126.000 LO 30 1008 -3 1012 120 30 40 9 250

IBTrACS Databaseについて

本データベースは、米国NOAAが公開する1842年以降の世界の熱帯低気圧のベストトラックデータアーカイブInternational Best Track Archive for Climate Stewardship (IBTrACS)を、ウェブで閲覧しやすい形式に変換したものです。

最終更新日:2022-08-18